Time;durP1;ratioP1;P1;durP2;ratioP2;P2;SDS_P1;SDS_P2;PMS_P1;PMS_P2;Temp;Humidity;BMP_temperature;BMP_pressure;BME280_temperature;BME280_humidity;BME280_pressure;Samples;Min_cycle;Max_cycle;Signal;HPM_P1;HPM_P2
2023/09/10 00:01:07;;;;;;;9.45;8.43;;;22.70;99.90;;;;;;5064394;28;20239;-66
2023/09/10 00:03:34;;;;;;;10.23;8.52;;;22.70;99.90;;;;;;5066864;28;20238;-66
2023/09/10 00:06:02;;;;;;;10.20;9.30;;;22.70;99.90;;;;;;5064290;28;20211;-65
2023/09/10 00:08:29;;;;;;;10.15;9.25;;;22.70;99.90;;;;;;5065677;28;20316;-65
2023/09/10 00:10:57;;;;;;;9.68;8.88;;;22.70;99.90;;;;;;5087954;28;20212;-65
2023/09/10 00:13:24;;;;;;;10.30;9.30;;;22.60;99.90;;;;;;5112142;28;20634;-65
2023/09/10 00:15:52;;;;;;;9.93;9.13;;;22.60;99.90;;;;;;5111870;28;20202;-66
2023/09/10 00:18:19;;;;;;;10.35;9.40;;;22.60;99.90;;;;;;5106013;28;21030;-65
2023/09/10 00:20:47;;;;;;;9.73;8.95;;;22.60;99.90;;;;;;5083825;28;20705;-66
2023/09/10 00:23:14;;;;;;;10.52;9.38;;;22.50;99.90;;;;;;5074298;28;20573;-66
2023/09/10 00:25:41;;;;;;;11.57;9.65;;;22.60;99.90;;;;;;5071366;28;20210;-65
2023/09/10 00:28:09;;;;;;;11.40;9.70;;;22.50;99.90;;;;;;5071295;28;20277;-66
2023/09/10 00:30:36;;;;;;;10.68;9.77;;;22.50;99.90;;;;;;5070864;28;20207;-65
2023/09/10 00:33:03;;;;;;;10.23;9.27;;;22.50;99.90;;;;;;5071604;28;20195;-66
2023/09/10 00:35:30;;;;;;;10.20;9.10;;;22.50;99.90;;;;;;5086302;28;20653;-65
2023/09/10 00:37:57;;;;;;;9.90;8.90;;;22.40;99.90;;;;;;5071250;28;20297;-65
2023/09/10 00:40:24;;;;;;;9.82;8.82;;;22.20;99.90;;;;;;5071850;28;20227;-65
2023/09/10 00:42:53;;;;;;;10.30;9.25;;;22.20;99.90;;;;;;5111674;28;20213;-66
2023/09/10 00:45:21;;;;;;;10.27;9.27;;;22.30;99.90;;;;;;5111088;28;20206;-65
2023/09/10 00:47:48;;;;;;;10.75;9.68;;;22.30;99.90;;;;;;5071184;28;20200;-65
2023/09/10 00:50:16;;;;;;;10.10;9.20;;;22.30;99.90;;;;;;5071500;28;20207;-65
2023/09/10 00:52:47;;;;;;;9.50;8.80;;;22.30;99.90;;;;;;5071359;28;20227;-65
2023/09/10 00:55:14;;;;;;;10.40;9.38;;;22.20;99.90;;;;;;5087038;28;20193;-65
2023/09/10 00:57:41;;;;;;;10.57;9.57;;;22.20;99.90;;;;;;5070601;28;20851;-65
2023/09/10 01:00:10;;;;;;;11.13;10.13;;;22.20;99.90;;;;;;5089525;28;20756;-65
2023/09/10 01:02:39;;;;;;;10.38;9.43;;;22.10;99.90;;;;;;5091425;28;20311;-65
2023/09/10 01:05:06;;;;;;;10.88;9.75;;;22.10;99.90;;;;;;5089562;28;20234;-66
2023/09/10 01:07:34;;;;;;;11.15;9.95;;;22.10;99.90;;;;;;5071054;28;20738;-65
2023/09/10 01:10:01;;;;;;;10.75;9.73;;;22.00;99.90;;;;;;5071234;28;20227;-65
2023/09/10 01:12:36;;;;;;;10.05;9.25;;;22.00;99.90;;;;;;5071547;28;20217;-65
2023/09/10 01:15:08;;;;;;;11.18;10.02;;;21.90;99.90;;;;;;5080196;28;20322;-65
2023/09/10 01:17:43;;;;;;;10.00;9.05;;;21.90;99.90;;;;;;5091162;28;20224;-65
2023/09/10 01:20:45;;;;;;;10.50;9.68;;;21.80;99.90;;;;;;5090462;28;20198;-65
2023/09/10 01:23:16;;;;;;;10.60;9.73;;;21.80;99.90;;;;;;5088038;28;20285;-65
2023/09/10 01:25:46;;;;;;;9.60;8.90;;;21.80;99.90;;;;;;5087730;28;20537;-65
2023/09/10 01:28:13;;;;;;;9.93;8.93;;;21.70;99.90;;;;;;5087595;28;20203;-65
2023/09/10 01:30:40;;;;;;;9.77;9.02;;;21.70;99.90;;;;;;5087216;28;20388;-65
2023/09/10 01:33:14;;;;;;;10.40;9.50;;;21.60;99.90;;;;;;5087217;28;20203;-65
2023/09/10 01:35:49;;;;;;;10.50;9.63;;;21.60;99.90;;;;;;5083167;28;20658;-64
2023/09/10 01:38:21;;;;;;;10.93;9.45;;;21.70;99.90;;;;;;5067533;28;20258;-65
2023/09/10 01:40:54;;;;;;;9.68;8.68;;;21.60;99.90;;;;;;5081853;28;20285;-65
2023/09/10 01:43:21;;;;;;;10.82;9.82;;;21.60;99.90;;;;;;5107937;28;20210;-66
2023/09/10 01:45:49;;;;;;;10.65;9.55;;;21.60;99.90;;;;;;5092858;28;20306;-66
2023/09/10 01:48:16;;;;;;;10.70;9.60;;;21.60;99.90;;;;;;5088215;28;20297;-66
2023/09/10 01:50:44;;;;;;;9.70;8.80;;;21.50;99.90;;;;;;5077279;28;20314;-66
2023/09/10 01:53:11;;;;;;;10.45;9.55;;;21.50;99.90;;;;;;5068980;28;20207;-66
2023/09/10 01:55:38;;;;;;;9.70;8.90;;;21.50;99.90;;;;;;5083458;28;20211;-66
2023/09/10 01:58:06;;;;;;;9.90;9.05;;;21.40;99.90;;;;;;5087508;28;20237;-66
2023/09/10 02:00:33;;;;;;;9.57;8.77;;;21.30;99.90;;;;;;5085289;28;20238;-66
2023/09/10 02:03:00;;;;;;;10.40;9.50;;;21.40;99.90;;;;;;5087625;28;20231;-67
2023/09/10 02:05:27;;;;;;;10.07;9.18;;;21.30;99.90;;;;;;5086823;28;20204;-67
2023/09/10 02:07:53;;;;;;;9.98;9.07;;;21.30;99.90;;;;;;5086896;28;20302;-67
2023/09/10 02:10:20;;;;;;;10.35;8.95;;;21.30;99.90;;;;;;5086740;28;20298;-66
2023/09/10 02:12:47;;;;;;;10.18;9.30;;;21.30;99.90;;;;;;5086965;28;20635;-66
2023/09/10 02:15:17;;;;;;;9.73;8.95;;;21.30;99.90;;;;;;5086527;28;20301;-66
2023/09/10 02:17:44;;;;;;;9.75;8.95;;;21.20;99.90;;;;;;5087211;28;20345;-66
2023/09/10 02:20:12;;;;;;;10.32;9.52;;;21.20;99.90;;;;;;5086585;28;20285;-66
2023/09/10 02:22:40;;;;;;;9.93;9.05;;;21.20;99.90;;;;;;5087422;28;20211;-66
2023/09/10 02:25:08;;;;;;;10.13;9.20;;;21.20;99.90;;;;;;5087032;28;20206;-66
2023/09/10 02:27:35;;;;;;;10.05;9.18;;;21.10;99.90;;;;;;5086441;28;20685;-66
2023/09/10 02:30:03;;;;;;;10.35;9.35;;;21.10;99.90;;;;;;5086405;28;20213;-66
2023/09/10 02:32:33;;;;;;;10.68;9.18;;;21.10;99.90;;;;;;5086521;28;20309;-66
2023/09/10 02:35:00;;;;;;;10.45;9.60;;;21.10;99.90;;;;;;5086503;28;20667;-66
2023/09/10 02:37:27;;;;;;;10.77;9.80;;;21.10;99.90;;;;;;5070729;28;20298;-66
2023/09/10 02:39:53;;;;;;;10.55;9.75;;;21.00;99.90;;;;;;5084674;28;20254;-66
2023/09/10 02:42:20;;;;;;;11.35;10.32;;;21.00;99.90;;;;;;5086625;28;20302;-66
2023/09/10 02:44:47;;;;;;;11.55;10.55;;;21.00;99.90;;;;;;5086452;28;20290;-66
2023/09/10 02:47:14;;;;;;;10.75;9.60;;;20.90;99.90;;;;;;5086601;28;20306;-66
2023/09/10 02:49:42;;;;;;;10.95;10.05;;;20.90;99.90;;;;;;5085145;28;20314;-66
2023/09/10 02:52:09;;;;;;;11.90;10.73;;;20.90;99.90;;;;;;5068364;28;20285;-66
2023/09/10 02:54:37;;;;;;;11.55;10.35;;;20.90;99.90;;;;;;5066104;28;20698;-65
2023/09/10 02:57:04;;;;;;;11.23;10.15;;;20.90;99.90;;;;;;5065414;28;20849;-66
2023/09/10 02:59:31;;;;;;;12.15;10.98;;;20.90;99.90;;;;;;5065167;28;21016;-66
2023/09/10 03:01:57;;;;;;;12.38;11.18;;;20.90;99.90;;;;;;5065191;28;20594;-66
2023/09/10 03:04:24;;;;;;;12.55;10.80;;;20.90;99.90;;;;;;5065703;28;20779;-66
2023/09/10 03:06:53;;;;;;;11.32;10.43;;;20.80;99.90;;;;;;5069062;28;20242;-65
2023/09/10 03:09:19;;;;;;;11.45;10.48;;;20.80;99.90;;;;;;5085860;28;20241;-65
2023/09/10 03:11:47;;;;;;;11.63;10.52;;;20.80;99.90;;;;;;5097617;28;20221;-66
2023/09/10 03:14:15;;;;;;;10.65;9.75;;;20.80;99.90;;;;;;5100184;28;20629;-66
2023/09/10 03:16:43;;;;;;;10.98;10.07;;;20.80;99.90;;;;;;5085926;28;20514;-66
2023/09/10 03:19:10;;;;;;;11.43;10.25;;;20.70;99.90;;;;;;5085652;28;20324;-66
2023/09/10 03:21:38;;;;;;;10.77;9.77;;;20.50;99.90;;;;;;5085697;28;20333;-66
2023/09/10 03:24:07;;;;;;;10.77;9.98;;;20.50;99.90;;;;;;5085455;28;20722;-66
2023/09/10 03:26:34;;;;;;;11.55;10.38;;;20.60;99.90;;;;;;5084285;28;20597;-65
2023/09/10 03:29:01;;;;;;;10.52;9.73;;;20.60;99.90;;;;;;5084097;28;20576;-66
2023/09/10 03:31:29;;;;;;;10.70;9.75;;;20.60;99.90;;;;;;5084986;28;20297;-66
2023/09/10 03:33:55;;;;;;;11.60;10.57;;;20.60;99.90;;;;;;5085065;28;20297;-66
2023/09/10 03:36:22;;;;;;;11.73;10.65;;;20.60;99.90;;;;;;5075380;28;20307;-66
2023/09/10 03:38:49;;;;;;;10.23;9.32;;;20.50;99.90;;;;;;5074675;28;20311;-65
2023/09/10 03:41:17;;;;;;;11.25;10.32;;;20.50;99.90;;;;;;5092353;28;20212;-66
2023/09/10 03:43:44;;;;;;;11.23;9.82;;;20.50;99.90;;;;;;5104907;28;20285;-66
2023/09/10 03:46:11;;;;;;;11.40;10.15;;;20.40;99.90;;;;;;5105400;28;20610;-66
2023/09/10 03:48:38;;;;;;;10.33;9.50;;;20.30;99.90;;;;;;5086028;28;20301;-65
2023/09/10 03:51:05;;;;;;;9.88;9.07;;;20.10;99.90;;;;;;5084724;28;20227;-66
2023/09/10 03:53:32;;;;;;;10.05;9.18;;;20.10;99.90;;;;;;5080019;28;20276;-67
2023/09/10 03:55:59;;;;;;;10.10;9.27;;;20.10;99.90;;;;;;5090098;28;20301;-66
2023/09/10 03:58:27;;;;;;;9.95;9.15;;;20.20;99.90;;;;;;5104965;28;20224;-66
2023/09/10 04:00:54;;;;;;;9.57;8.77;;;20.10;99.90;;;;;;5091754;28;20751;-66
2023/09/10 04:03:21;;;;;;;9.57;8.85;;;20.20;99.90;;;;;;5084215;28;20203;-65
2023/09/10 04:05:48;;;;;;;10.63;9.48;;;20.10;99.90;;;;;;5084139;28;20301;-65
2023/09/10 04:08:15;;;;;;;10.18;9.27;;;20.10;99.90;;;;;;5084933;28;20289;-66
2023/09/10 04:10:42;;;;;;;10.10;9.10;;;20.10;99.90;;;;;;5084636;28;20217;-65
2023/09/10 04:13:09;;;;;;;9.67;8.90;;;20.00;99.90;;;;;;5084067;28;20652;-65
2023/09/10 04:15:37;;;;;;;9.98;9.07;;;19.90;99.90;;;;;;5084939;28;20206;-65
2023/09/10 04:18:05;;;;;;;9.77;8.97;;;19.90;99.90;;;;;;5084358;28;20252;-65
2023/09/10 04:20:32;;;;;;;9.63;8.93;;;19.90;99.90;;;;;;5066878;28;20254;-65
2023/09/10 04:22:59;;;;;;;10.98;9.98;;;20.00;99.90;;;;;;5064126;28;20298;-65
2023/09/10 04:25:26;;;;;;;10.70;9.15;;;20.00;99.90;;;;;;5068698;28;20806;-66
2023/09/10 04:27:53;;;;;;;10.13;9.15;;;20.00;99.90;;;;;;5063920;28;21030;-65
2023/09/10 04:30:20;;;;;;;11.50;9.40;;;19.90;99.90;;;;;;5064066;28;20297;-66
2023/09/10 04:32:48;;;;;;;10.23;9.03;;;19.90;99.90;;;;;;5064055;28;20318;-65
2023/09/10 04:35:15;;;;;;;10.35;9.35;;;19.90;99.90;;;;;;5064060;28;20291;-65
2023/09/10 04:37:42;;;;;;;10.80;9.80;;;19.80;99.90;;;;;;5064305;28;20298;-66
2023/09/10 04:40:09;;;;;;;10.27;9.47;;;19.80;99.90;;;;;;5064253;28;20649;-65
2023/09/10 04:42:36;;;;;;;10.20;9.30;;;19.80;99.90;;;;;;5100323;28;20297;-65
2023/09/10 04:45:04;;;;;;;10.07;9.07;;;19.80;99.90;;;;;;5069744;28;20298;-65
2023/09/10 04:47:31;;;;;;;9.80;9.00;;;19.80;99.90;;;;;;5064306;28;20329;-65
2023/09/10 04:49:59;;;;;;;9.90;9.00;;;19.70;99.90;;;;;;5064333;28;20306;-66
2023/09/10 04:52:26;;;;;;;10.25;9.13;;;19.70;99.90;;;;;;5065318;28;20251;-66
2023/09/10 04:54:53;;;;;;;10.87;9.80;;;19.70;99.90;;;;;;5064067;28;20548;-65
2023/09/10 04:57:20;;;;;;;10.23;9.40;;;19.70;99.90;;;;;;5068201;28;20302;-65
2023/09/10 04:59:47;;;;;;;10.30;9.33;;;19.70;99.90;;;;;;5072567;28;20226;-66
2023/09/10 05:02:14;;;;;;;12.33;9.83;;;19.70;99.90;;;;;;5067733;28;21012;-66
2023/09/10 05:04:40;;;;;;;11.63;9.60;;;19.70;99.90;;;;;;5067946;28;20323;-66
2023/09/10 05:07:09;;;;;;;10.60;9.53;;;19.70;99.90;;;;;;5067567;28;20254;-69
2023/09/10 05:09:36;;;;;;;10.00;9.10;;;19.50;99.90;;;;;;5067703;28;20226;-66
2023/09/10 05:12:03;;;;;;;10.50;9.40;;;19.60;99.90;;;;;;5088040;28;21691;-65
2023/09/10 05:14:30;;;;;;;10.57;9.63;;;19.60;99.90;;;;;;5067439;28;20203;-65
2023/09/10 05:16:57;;;;;;;10.88;9.77;;;19.70;99.90;;;;;;5067549;28;20243;-65
2023/09/10 05:19:24;;;;;;;12.00;9.80;;;19.70;99.90;;;;;;5067745;28;20310;-65
2023/09/10 05:21:51;;;;;;;11.13;10.13;;;19.80;99.90;;;;;;5067937;28;20203;-66
2023/09/10 05:24:20;;;;;;;10.70;9.90;;;19.70;99.90;;;;;;5067890;28;20238;-65
2023/09/10 05:26:46;;;;;;;11.73;9.70;;;19.70;99.90;;;;;;5067802;28;20234;-66
2023/09/10 05:29:13;;;;;;;12.37;10.10;;;19.80;99.90;;;;;;5067172;28;20284;-66
2023/09/10 05:31:40;;;;;;;11.50;10.20;;;19.80;99.90;;;;;;5066706;28;20294;-65
2023/09/10 05:34:07;;;;;;;13.83;9.93;;;19.80;99.90;;;;;;5066910;28;20207;-65
2023/09/10 05:36:34;;;;;;;10.87;9.53;;;19.80;99.90;;;;;;5066980;28;20219;-65
2023/09/10 05:39:01;;;;;;;10.40;9.40;;;19.90;99.90;;;;;;5066828;28;20335;-65
2023/09/10 05:41:29;;;;;;;11.15;10.23;;;19.90;99.90;;;;;;5066937;28;20211;-64
2023/09/10 05:43:56;;;;;;;11.55;10.57;;;19.90;99.90;;;;;;5066396;28;20243;-65
2023/09/10 05:46:23;;;;;;;11.73;10.80;;;19.90;99.90;;;;;;5067505;28;20756;-65
2023/09/10 05:48:50;;;;;;;12.00;11.00;;;20.00;99.90;;;;;;5087062;28;20203;-65
2023/09/10 05:51:17;;;;;;;11.30;10.40;;;20.10;99.90;;;;;;5087528;28;20281;-64
2023/09/10 05:53:44;;;;;;;11.65;10.75;;;20.10;99.90;;;;;;5087376;28;20303;-65
2023/09/10 05:56:11;;;;;;;12.90;11.80;;;20.20;99.90;;;;;;5087206;28;20216;-64
2023/09/10 05:58:40;;;;;;;12.47;11.17;;;20.20;99.90;;;;;;5084279;28;20846;-65
2023/09/10 06:01:06;;;;;;;11.63;10.50;;;20.30;99.90;;;;;;5066089;28;20674;-65
2023/09/10 06:03:33;;;;;;;11.77;10.67;;;20.30;99.90;;;;;;5066400;28;20674;-64
2023/09/10 06:06:01;;;;;;;11.60;10.63;;;20.30;99.90;;;;;;5066388;28;20207;-65
2023/09/10 06:08:29;;;;;;;12.23;11.13;;;20.30;99.90;;;;;;5065755;28;20218;-65
2023/09/10 06:10:56;;;;;;;11.50;10.40;;;20.40;99.90;;;;;;5066627;28;20207;-65
2023/09/10 06:13:23;;;;;;;11.63;10.55;;;20.40;99.90;;;;;;5084219;28;20207;-65
2023/09/10 06:15:51;;;;;;;11.85;10.75;;;20.40;99.90;;;;;;5085942;28;20203;-65
2023/09/10 06:18:18;;;;;;;11.87;10.60;;;20.50;99.90;;;;;;5086992;28;20400;-65
2023/09/10 06:20:45;;;;;;;10.55;9.65;;;20.50;99.90;;;;;;5086317;28;20226;-65
2023/09/10 06:23:12;;;;;;;11.55;10.65;;;20.60;99.90;;;;;;5082925;28;20210;-65
2023/09/10 06:25:39;;;;;;;11.23;10.23;;;20.60;99.90;;;;;;5070543;28;20281;-65
2023/09/10 06:28:06;;;;;;;11.50;10.50;;;20.70;99.90;;;;;;5066060;28;20677;-65
2023/09/10 06:30:33;;;;;;;12.13;11.07;;;20.70;99.90;;;;;;5066180;28;20306;-65
2023/09/10 06:33:01;;;;;;;12.48;11.27;;;20.70;99.90;;;;;;5066309;28;20301;-65
2023/09/10 06:35:29;;;;;;;12.23;11.05;;;20.80;99.90;;;;;;5069705;28;20286;-65
2023/09/10 06:37:56;;;;;;;12.10;11.10;;;20.80;99.90;;;;;;5085128;28;20218;-65
2023/09/10 06:40:23;;;;;;;11.63;10.68;;;20.80;99.90;;;;;;5085518;28;20801;-65
2023/09/10 06:42:50;;;;;;;12.32;11.10;;;20.90;99.90;;;;;;5105641;28;20231;-65
2023/09/10 06:45:17;;;;;;;11.50;10.60;;;20.90;99.90;;;;;;5105924;28;20216;-65
2023/09/10 06:47:44;;;;;;;12.32;11.25;;;20.90;99.90;;;;;;5090738;28;20286;-65
2023/09/10 06:50:12;;;;;;;11.63;10.52;;;21.00;99.90;;;;;;5065432;28;20957;-65
2023/09/10 06:52:39;;;;;;;12.38;11.07;;;21.00;99.90;;;;;;5072190;28;20342;-64
2023/09/10 06:55:07;;;;;;;11.65;10.65;;;21.10;99.90;;;;;;5065648;28;20298;-64
2023/09/10 06:57:34;;;;;;;11.50;10.55;;;21.10;99.90;;;;;;5065709;28;20290;-65
2023/09/10 07:00:00;;;;;;;11.27;10.38;;;21.20;99.90;;;;;;5075048;28;20338;-65
2023/09/10 07:02:27;;;;;;;11.05;10.25;;;21.20;99.90;;;;;;5065341;28;20322;-65
2023/09/10 07:04:54;;;;;;;12.15;10.98;;;21.30;99.90;;;;;;5064701;28;20290;-65
2023/09/10 07:07:22;;;;;;;11.43;10.18;;;21.40;99.90;;;;;;5064992;28;20207;-65
2023/09/10 07:09:49;;;;;;;10.85;10.05;;;21.40;99.90;;;;;;5064908;28;20749;-65
2023/09/10 07:12:16;;;;;;;10.98;9.93;;;21.50;99.90;;;;;;5081595;28;20294;-65
2023/09/10 07:14:44;;;;;;;11.43;10.32;;;21.60;99.90;;;;;;5065477;28;20203;-66
2023/09/10 07:17:11;;;;;;;11.82;10.60;;;21.60;99.90;;;;;;5065522;28;20557;-66
2023/09/10 07:19:38;;;;;;;11.35;10.43;;;21.70;99.90;;;;;;5065308;28;20242;-66
2023/09/10 07:22:05;;;;;;;11.13;9.98;;;21.80;99.90;;;;;;5070084;28;20325;-66
2023/09/10 07:24:33;;;;;;;10.90;10.00;;;21.90;99.90;;;;;;5078731;28;20767;-66
2023/09/10 07:27:01;;;;;;;11.52;10.63;;;21.90;99.90;;;;;;5065228;28;20290;-66
2023/09/10 07:29:28;;;;;;;11.15;10.13;;;22.00;99.90;;;;;;5068106;28;20199;-66
2023/09/10 07:31:55;;;;;;;10.35;9.45;;;22.10;99.90;;;;;;5069503;28;20231;-66
2023/09/10 07:34:22;;;;;;;10.02;9.23;;;22.20;99.90;;;;;;5064812;28;20306;-66
2023/09/10 07:36:49;;;;;;;10.18;9.15;;;22.20;99.90;;;;;;5064284;28;20286;-64
2023/09/10 07:39:19;;;;;;;9.55;8.85;;;22.30;99.90;;;;;;5064522;28;20269;-65
2023/09/10 07:41:47;;;;;;;9.40;8.68;;;22.40;99.90;;;;;;5086515;28;20212;-64
2023/09/10 07:44:14;;;;;;;8.70;8.05;;;22.40;99.90;;;;;;5104858;28;20213;-64
2023/09/10 07:46:41;;;;;;;8.90;8.00;;;22.50;99.90;;;;;;5104914;28;20650;-64
2023/09/10 07:49:08;;;;;;;7.75;7.05;;;22.60;99.90;;;;;;5086740;28;20302;-64
2023/09/10 07:51:35;;;;;;;7.13;6.25;;;22.60;99.90;;;;;;5083993;28;20236;-65
2023/09/10 07:54:02;;;;;;;7.13;6.63;;;22.70;99.90;;;;;;5084399;28;20245;-65
2023/09/10 07:56:28;;;;;;;6.72;6.22;;;22.80;99.90;;;;;;5084900;28;20206;-66
2023/09/10 07:58:58;;;;;;;6.57;5.97;;;22.90;99.90;;;;;;5084396;28;20325;-65
2023/09/10 08:01:24;;;;;;;6.90;6.30;;;22.90;99.90;;;;;;5084277;28;20248;-64
2023/09/10 08:03:51;;;;;;;6.93;6.32;;;23.00;99.90;;;;;;5068701;28;20290;-65
2023/09/10 08:06:19;;;;;;;8.50;6.43;;;23.10;99.90;;;;;;5064695;28;20296;-65
2023/09/10 08:08:47;;;;;;;6.28;5.78;;;23.10;99.90;;;;;;5077537;28;20202;-64
2023/09/10 08:11:14;;;;;;;6.75;6.25;;;23.10;99.90;;;;;;5089927;28;20300;-65
2023/09/10 08:13:42;;;;;;;7.50;6.72;;;23.20;99.90;;;;;;5103667;28;20247;-65
2023/09/10 08:16:13;;;;;;;7.38;6.60;;;23.30;99.90;;;;;;5085194;28;21178;-65
2023/09/10 08:18:40;;;;;;;6.88;6.38;;;23.30;99.90;;;;;;5075531;28;20207;-66
2023/09/10 08:21:07;;;;;;;7.22;6.72;;;23.40;99.90;;;;;;5062678;28;20320;-65
2023/09/10 08:23:34;;;;;;;7.60;6.95;;;23.40;99.90;;;;;;5063158;28;20291;-65
2023/09/10 08:26:01;;;;;;;7.10;6.40;;;23.50;99.90;;;;;;5063797;28;20299;-65
2023/09/10 08:28:27;;;;;;;6.78;6.18;;;23.50;99.90;;;;;;5065425;28;20203;-64
2023/09/10 08:30:55;;;;;;;7.28;6.63;;;23.60;99.90;;;;;;5064058;28;20300;-65
2023/09/10 08:33:25;;;;;;;7.03;6.43;;;23.60;99.90;;;;;;5070221;28;20206;-64
2023/09/10 08:35:54;;;;;;;7.82;7.07;;;23.70;99.90;;;;;;5081184;28;20235;-65
2023/09/10 08:38:24;;;;;;;7.45;6.78;;;23.70;99.90;;;;;;5067130;28;20215;-65
2023/09/10 08:41:02;;;;;;;6.93;6.25;;;23.80;99.90;;;;;;5066793;28;20312;-65
2023/09/10 08:43:37;;;;;;;9.65;6.60;;;23.80;99.90;;;;;;5068202;28;20231;-65
2023/09/10 08:46:07;;;;;;;6.60;5.95;;;24.00;99.90;;;;;;5072297;28;20286;-65
2023/09/10 08:48:39;;;;;;;8.57;6.57;;;24.00;99.90;;;;;;5068014;28;20199;-66
2023/09/10 08:51:07;;;;;;;6.50;6.00;;;24.10;99.90;;;;;;5070878;28;20214;-65
2023/09/10 08:53:37;;;;;;;5.90;5.50;;;24.20;99.90;;;;;;5074772;28;20291;-65
2023/09/10 08:56:05;;;;;;;7.10;5.97;;;24.20;99.90;;;;;;5066852;28;20215;-64
2023/09/10 08:58:33;;;;;;;6.47;5.97;;;24.30;99.90;;;;;;5086909;28;20207;-65
2023/09/10 09:01:01;;;;;;;6.32;5.88;;;24.40;99.90;;;;;;5086897;28;20246;-65
2023/09/10 09:03:28;;;;;;;6.57;6.10;;;24.40;99.90;;;;;;5087096;28;20203;-65
2023/09/10 09:05:58;;;;;;;7.57;6.00;;;24.50;99.90;;;;;;5086652;28;20241;-66
2023/09/10 09:08:30;;;;;;;6.85;6.25;;;24.50;99.90;;;;;;5082480;28;20394;-66
2023/09/10 09:10:57;;;;;;;8.32;6.28;;;24.60;99.90;;;;;;5071510;28;20206;-66
2023/09/10 09:13:25;;;;;;;8.77;6.20;;;24.60;99.90;;;;;;5070534;28;20221;-66
2023/09/10 09:15:53;;;;;;;6.00;5.60;;;24.70;99.90;;;;;;5085729;28;20285;-66
2023/09/10 09:18:22;;;;;;;10.05;5.90;;;24.80;99.90;;;;;;5066731;28;20235;-66
2023/09/10 09:20:51;;;;;;;6.53;5.95;;;24.80;99.90;;;;;;5072237;28;20775;-66
2023/09/10 09:23:23;;;;;;;6.20;5.68;;;24.90;99.90;;;;;;5074172;28;20204;-66
2023/09/10 09:25:51;;;;;;;5.93;5.40;;;25.00;99.90;;;;;;5070668;28;20316;-66
2023/09/10 09:28:20;;;;;;;6.45;5.95;;;25.00;99.90;;;;;;5067542;28;20900;-66
2023/09/10 09:30:47;;;;;;;6.20;5.53;;;25.10;99.90;;;;;;5086317;28;20215;-68
2023/09/10 09:33:14;;;;;;;6.22;5.82;;;25.10;99.90;;;;;;5086597;28;20207;-66
2023/09/10 09:35:41;;;;;;;7.25;6.10;;;25.20;99.90;;;;;;5082001;28;20201;-66
2023/09/10 09:38:10;;;;;;;6.72;6.03;;;25.30;99.90;;;;;;5082048;28;20306;-67
2023/09/10 09:40:38;;;;;;;6.38;5.88;;;25.30;99.90;;;;;;5079007;28;20231;-66
2023/09/10 09:43:07;;;;;;;6.88;5.75;;;25.40;99.90;;;;;;5082828;28;20252;-66
2023/09/10 09:45:35;;;;;;;5.68;5.20;;;25.40;99.90;;;;;;5074451;28;20210;-66
2023/09/10 09:48:03;;;;;;;6.53;5.60;;;25.50;99.90;;;;;;5066967;28;20286;-66
2023/09/10 09:50:30;;;;;;;5.75;5.18;;;25.50;99.90;;;;;;5067218;28;20314;-66
2023/09/10 09:52:57;;;;;;;6.28;5.75;;;25.60;99.90;;;;;;5066888;28;20608;-66
2023/09/10 09:55:24;;;;;;;6.20;5.60;;;25.60;99.90;;;;;;5077389;28;20293;-66
2023/09/10 09:57:53;;;;;;;5.57;5.25;;;25.70;99.90;;;;;;5070969;28;20218;-66
2023/09/10 10:00:20;;;;;;;6.10;5.50;;;25.80;99.90;;;;;;5066790;28;20308;-67
2023/09/10 10:02:47;;;;;;;6.32;5.75;;;25.80;99.90;;;;;;5066747;28;20283;-66
2023/09/10 10:05:14;;;;;;;6.40;5.90;;;26.00;99.90;;;;;;5066714;28;20247;-66
2023/09/10 10:07:41;;;;;;;5.90;5.40;;;26.00;99.90;;;;;;5066616;28;21088;-66
2023/09/10 10:10:13;;;;;;;6.03;5.43;;;26.10;99.90;;;;;;5066633;28;20208;-67
2023/09/10 10:12:41;;;;;;;6.85;5.70;;;26.10;99.90;;;;;;5104599;28;20769;-66
2023/09/10 10:15:10;;;;;;;10.15;5.45;;;26.10;99.90;;;;;;5089257;28;20260;-66
2023/09/10 10:17:39;;;;;;;5.20;4.80;;;26.20;99.90;;;;;;5071086;28;20653;-66
2023/09/10 10:20:08;;;;;;;6.13;5.30;;;26.30;99.90;;;;;;5067085;28;20287;-66
2023/09/10 10:22:37;;;;;;;5.75;5.35;;;26.30;99.90;;;;;;5068699;28;20219;-67
2023/09/10 10:25:05;;;;;;;5.28;4.88;;;26.40;99.90;;;;;;5083227;28;20837;-66
2023/09/10 10:27:34;;;;;;;5.63;5.10;;;26.40;99.90;;;;;;5069004;28;20265;-66
2023/09/10 10:30:01;;;;;;;5.28;4.88;;;26.50;99.90;;;;;;5067086;28;20213;-66
2023/09/10 10:32:38;;;;;;;5.35;4.90;;;26.60;99.90;;;;;;5085671;28;20260;-66
2023/09/10 10:35:09;;;;;;;10.30;5.20;;;26.60;99.90;;;;;;5079133;28;20280;-66
2023/09/10 10:37:46;;;;;;;5.68;5.20;;;26.70;99.90;;;;;;5081302;28;20214;-66
2023/09/10 10:40:14;;;;;;;5.28;4.97;;;26.70;99.90;;;;;;5072250;28;20192;-66
2023/09/10 10:42:50;;;;;;;5.90;5.35;;;26.80;99.90;;;;;;5102762;28;20233;-66
2023/09/10 10:45:19;;;;;;;6.40;5.45;;;26.90;99.90;;;;;;5086428;28;20230;-66
2023/09/10 10:47:48;;;;;;;5.68;5.25;;;27.00;99.90;;;;;;5066565;28;20203;-66
2023/09/10 10:50:21;;;;;;;6.00;5.05;;;27.10;99.90;;;;;;5079924;28;20231;-67
2023/09/10 10:52:56;;;;;;;5.88;5.07;;;27.20;99.90;;;;;;5080279;28;20195;-66
2023/09/10 10:55:24;;;;;;;4.93;4.53;;;27.20;99.90;;;;;;5080704;28;20200;-66
2023/09/10 10:57:52;;;;;;;5.80;4.85;;;27.30;99.90;;;;;;5085872;28;20294;-66
2023/09/10 11:00:19;;;;;;;5.65;5.30;;;27.30;99.90;;;;;;5086335;28;20214;-66
2023/09/10 11:02:49;;;;;;;5.45;4.95;;;27.40;99.90;;;;;;5086279;28;20229;-66
2023/09/10 11:05:16;;;;;;;5.57;4.68;;;27.50;99.70;;;;;;5086566;28;20202;-66
2023/09/10 11:07:45;;;;;;;4.82;4.28;;;27.60;99.10;;;;;;5086168;28;20238;-66
2023/09/10 11:10:41;;;;;;;6.63;4.40;;;27.60;98.70;;;;;;5085775;28;20218;-66
2023/09/10 11:13:08;;;;;;;5.22;4.30;;;27.70;97.30;;;;;;5065338;28;20214;-67
2023/09/10 11:15:35;;;;;;;4.97;4.53;;;27.70;97.20;;;;;;5065635;28;20323;-66
2023/09/10 11:18:41;;;;;;;5.80;4.20;;;27.80;96.70;;;;;;5077161;28;20318;-66
2023/09/10 11:21:09;;;;;;;4.53;4.28;;;27.80;96.60;;;;;;5085646;28;20241;-66
2023/09/10 11:23:37;;;;;;;4.70;4.40;;;27.90;96.60;;;;;;5085395;28;20799;-66
2023/09/10 11:26:32;;;;;;;5.45;4.95;;;28.00;96.40;;;;;;5085185;28;20209;-66
2023/09/10 11:29:01;;;;;;;6.70;4.75;;;28.00;96.40;;;;;;5065325;28;20253;-66
2023/09/10 11:31:47;;;;;;;4.90;4.32;;;28.10;96.30;;;;;;5064736;28;20564;-66
2023/09/10 11:34:38;;;;;;;4.85;4.45;;;28.10;96.30;;;;;;5071169;28;20211;-66
2023/09/10 11:37:10;;;;;;;8.65;4.38;;;28.10;96.30;;;;;;5067811;28;20572;-66
2023/09/10 11:39:38;;;;;;;4.53;4.22;;;28.20;96.10;;;;;;5072546;28;20211;-66
2023/09/10 11:42:09;;;;;;;4.95;4.30;;;28.30;95.70;;;;;;5068829;28;20747;-66
2023/09/10 11:44:37;;;;;;;4.85;4.32;;;28.30;95.10;;;;;;5071056;28;20252;-66
2023/09/10 11:47:04;;;;;;;5.60;4.60;;;28.30;95.10;;;;;;5079191;28;20282;-67
2023/09/10 11:49:31;;;;;;;10.32;5.05;;;28.40;95.20;;;;;;5080413;28;20202;-66
2023/09/10 11:51:59;;;;;;;4.97;4.57;;;28.40;95.20;;;;;;5072209;28;20227;-66
2023/09/10 11:54:27;;;;;;;6.65;4.70;;;28.40;95.10;;;;;;5075099;28;20300;-67
2023/09/10 11:56:56;;;;;;;9.80;5.00;;;28.50;95.30;;;;;;5071062;28;20199;-67
2023/09/10 11:59:25;;;;;;;4.85;4.43;;;28.50;95.20;;;;;;5071752;28;20833;-67
2023/09/10 12:01:54;;;;;;;15.65;4.75;;;28.50;95.10;;;;;;5069484;28;20246;-67
2023/09/10 12:04:21;;;;;;;8.40;4.57;;;28.60;95.30;;;;;;5062697;28;20306;-67
2023/09/10 12:06:48;;;;;;;5.53;4.32;;;28.60;95.40;;;;;;5062389;28;20235;-67
2023/09/10 12:09:18;;;;;;;4.45;4.05;;;28.60;95.00;;;;;;5062875;28;20234;-67
2023/09/10 12:11:46;;;;;;;4.80;4.22;;;28.60;94.70;;;;;;5086044;28;20205;-68
2023/09/10 12:14:14;;;;;;;5.68;4.35;;;28.70;94.40;;;;;;5091961;28;20211;-67
2023/09/10 12:16:41;;;;;;;5.40;4.75;;;28.70;94.60;;;;;;5083264;28;20290;-67
2023/09/10 12:19:08;;;;;;;9.95;4.93;;;28.70;95.00;;;;;;5083316;28;20202;-67
2023/09/10 12:21:35;;;;;;;4.97;4.57;;;28.80;95.20;;;;;;5083361;28;20342;-67
2023/09/10 12:24:03;;;;;;;5.40;4.90;;;28.80;94.80;;;;;;5083588;28;20290;-67
2023/09/10 12:26:31;;;;;;;7.82;4.70;;;28.90;95.10;;;;;;5076136;28;20294;-67
2023/09/10 12:28:58;;;;;;;4.82;4.38;;;28.90;94.90;;;;;;5073624;28;20209;-67
2023/09/10 12:31:26;;;;;;;5.18;4.68;;;28.90;95.00;;;;;;5082150;28;20301;-67
2023/09/10 12:33:53;;;;;;;5.15;4.63;;;29.00;94.60;;;;;;5072607;28;20769;-67
2023/09/10 12:36:21;;;;;;;4.88;4.43;;;29.00;94.40;;;;;;5083300;28;20203;-67
2023/09/10 12:38:48;;;;;;;5.05;4.40;;;29.10;94.10;;;;;;5074756;28;20293;-67
2023/09/10 12:41:16;;;;;;;5.10;4.72;;;29.10;94.20;;;;;;5072653;28;20281;-67
2023/09/10 12:43:45;;;;;;;6.90;4.38;;;29.10;93.90;;;;;;5065037;28;20199;-67
2023/09/10 12:46:12;;;;;;;4.68;4.38;;;29.20;93.20;;;;;;5083268;28;20283;-67